Time;durP1;ratioP1;P1;durP2;ratioP2;P2;SDS_P1;SDS_P2;PMS_P1;PMS_P2;Temp;Humidity;BMP_temperature;BMP_pressure;BME280_temperature;BME280_humidity;BME280_pressure;Samples;Min_cycle;Max_cycle;Signal;HPM_P1;HPM_P2
2023/04/15 00:00:58;;;;;;;7.73;5.80;;;;;;;;;;6242957;23;20152;-87
2023/04/15 00:04:03;;;;;;;8.90;5.50;;;;;;;;;;6220196;23;20183;-86
2023/04/15 00:07:07;;;;;;;11.67;6.23;;;;;;;;;;6241760;23;20147;-87
2023/04/15 00:10:13;;;;;;;6.97;5.37;;;;;;;;;;6208366;23;20148;-87
2023/04/15 00:13:17;;;;;;;8.80;6.20;;;;;;;;;;6223512;22;20195;-87
2023/04/15 00:16:21;;;;;;;9.93;6.20;;;;;;;;;;6225248;23;20179;-87
2023/04/15 00:19:25;;;;;;;8.43;6.33;;;;;;;;;;6207559;23;20155;-87
2023/04/15 00:22:29;;;;;;;8.60;6.23;;;;;;;;;;6225209;23;20151;-87
2023/04/15 00:25:34;;;;;;;9.50;6.87;;;;;;;;;;6225571;23;20152;-87
2023/04/15 00:28:38;;;;;;;8.93;7.07;;;;;;;;;;6224986;23;20155;-87
2023/04/15 00:31:42;;;;;;;13.57;6.73;;;;;;;;;;6224736;23;20155;-87
2023/04/15 00:34:46;;;;;;;11.33;6.87;;;;;;;;;;6197533;23;20191;-87
2023/04/15 00:37:50;;;;;;;11.93;7.20;;;;;;;;;;6251031;23;20168;-87
2023/04/15 00:40:55;;;;;;;10.30;7.33;;;;;;;;;;6197985;23;20482;-87
2023/04/15 00:44:01;;;;;;;11.50;7.43;;;;;;;;;;6219199;23;20493;-88
2023/04/15 00:47:05;;;;;;;11.67;6.50;;;;;;;;;;6198230;23;20175;-88
2023/04/15 00:50:11;;;;;;;9.17;6.67;;;;;;;;;;6207139;23;20160;-87
2023/04/15 00:53:16;;;;;;;9.67;6.63;;;;;;;;;;6239194;22;20512;-88
2023/04/15 00:56:23;;;;;;;9.83;7.47;;;;;;;;;;6197019;23;20195;-87
2023/04/15 00:59:29;;;;;;;7.40;5.80;;;;;;;;;;6223869;23;20152;-87
2023/04/15 01:02:35;;;;;;;8.23;5.80;;;;;;;;;;6206032;23;20152;-87
2023/04/15 01:05:40;;;;;;;7.53;5.17;;;;;;;;;;6223223;23;20152;-88
2023/04/15 01:08:46;;;;;;;7.43;5.50;;;;;;;;;;6222870;23;20156;-88
2023/04/15 01:11:51;;;;;;;6.63;5.50;;;;;;;;;;6206577;23;20450;-87
2023/04/15 01:14:56;;;;;;;9.80;5.87;;;;;;;;;;6197773;23;20187;-88
2023/04/15 01:18:02;;;;;;;6.93;5.10;;;;;;;;;;6225149;23;20151;-86
2023/04/15 01:21:07;;;;;;;6.37;5.17;;;;;;;;;;6209447;23;20156;-85
2023/04/15 01:24:15;;;;;;;10.03;5.33;;;;;;;;;;6202596;23;20191;-86
2023/04/15 01:27:20;;;;;;;7.63;5.00;;;;;;;;;;6225564;23;20151;-86
2023/04/15 01:30:25;;;;;;;8.80;5.67;;;;;;;;;;6208547;23;20487;-85
2023/04/15 01:33:31;;;;;;;9.27;4.80;;;;;;;;;;6223550;22;20187;-86
2023/04/15 01:36:53;;;;;;;8.23;5.33;;;;;;;;;;6234923;23;20179;-86
2023/04/15 01:39:59;;;;;;;7.50;4.97;;;;;;;;;;6219008;23;20513;-86
2023/04/15 01:43:03;;;;;;;6.20;4.77;;;;;;;;;;6239517;22;20151;-88
2023/04/15 01:46:09;;;;;;;6.20;5.27;;;;;;;;;;6236154;23;20172;-87
2023/04/15 01:49:14;;;;;;;7.63;5.87;;;;;;;;;;6222368;23;20151;-88
2023/04/15 01:52:19;;;;;;;9.53;5.97;;;;;;;;;;6223441;23;20155;-87
2023/04/15 01:55:25;;;;;;;7.70;5.73;;;;;;;;;;6222876;23;20156;-87
2023/04/15 01:58:31;;;;;;;8.07;5.47;;;;;;;;;;6222782;23;20152;-87
2023/04/15 02:01:37;;;;;;;12.13;5.30;;;;;;;;;;6222767;23;20155;-87
2023/04/15 02:04:43;;;;;;;7.70;5.30;;;;;;;;;;6212339;23;20183;-87
2023/04/15 02:07:56;;;;;;;6.57;5.43;;;;;;;;;;6225477;23;20152;-87
2023/04/15 02:11:02;;;;;;;9.40;5.40;;;;;;;;;;6223594;23;20147;-87
2023/04/15 02:14:08;;;;;;;6.70;5.43;;;;;;;;;;6201621;23;20191;-86
2023/04/15 02:17:13;;;;;;;7.27;5.77;;;;;;;;;;6240053;23;20179;-87
2023/04/15 02:20:22;;;;;;;9.97;5.90;;;;;;;;;;6223832;23;20155;-87
2023/04/15 02:23:27;;;;;;;6.63;5.70;;;;;;;;;;6221111;22;20652;-87
2023/04/15 02:26:32;;;;;;;8.27;5.80;;;;;;;;;;6213288;23;20167;-87
2023/04/15 02:29:38;;;;;;;7.60;5.63;;;;;;;;;;6240261;23;20147;-86
2023/04/15 02:32:43;;;;;;;8.20;5.20;;;;;;;;;;6223558;23;20589;-87
2023/04/15 02:35:49;;;;;;;6.47;5.53;;;;;;;;;;6223450;23;20156;-86
2023/04/15 02:38:55;;;;;;;8.87;6.17;;;;;;;;;;6212847;23;20509;-87
2023/04/15 02:42:01;;;;;;;7.90;5.77;;;;;;;;;;6223520;23;20156;-86
2023/04/15 02:45:08;;;;;;;8.10;5.80;;;;;;;;;;6213425;23;20516;-87
2023/04/15 02:48:16;;;;;;;8.43;6.50;;;;;;;;;;6223551;23;20473;-87
2023/04/15 02:51:22;;;;;;;7.90;6.50;;;;;;;;;;6240251;23;20160;-87
2023/04/15 02:54:28;;;;;;;8.63;6.30;;;;;;;;;;6217227;23;20191;-87
2023/04/15 02:57:36;;;;;;;8.13;6.23;;;;;;;;;;6223755;23;20183;-87
2023/04/15 03:00:44;;;;;;;9.07;6.90;;;;;;;;;;6240634;23;20152;-87
2023/04/15 03:03:50;;;;;;;7.77;6.73;;;;;;;;;;6236776;22;20188;-87
2023/04/15 03:06:55;;;;;;;9.40;6.50;;;;;;;;;;6222886;23;20589;-87
2023/04/15 03:10:01;;;;;;;8.63;6.73;;;;;;;;;;6223989;23;20156;-87
2023/04/15 03:13:07;;;;;;;9.83;6.97;;;;;;;;;;6223183;22;20152;-87
2023/04/15 03:16:13;;;;;;;9.03;6.63;;;;;;;;;;6223125;23;20155;-87
2023/04/15 03:19:20;;;;;;;10.07;7.33;;;;;;;;;;6239626;23;20600;-87
2023/04/15 03:22:25;;;;;;;10.00;7.20;;;;;;;;;;6221831;23;20156;-87
2023/04/15 03:25:32;;;;;;;9.90;7.43;;;;;;;;;;6222433;23;20159;-88
2023/04/15 03:28:38;;;;;;;8.80;7.63;;;;;;;;;;6222396;23;20604;-87
2023/04/15 03:31:44;;;;;;;12.03;7.57;;;;;;;;;;6239044;23;20151;-87
2023/04/15 03:34:50;;;;;;;11.27;8.50;;;;;;;;;;6212593;23;20498;-87
2023/04/15 03:37:56;;;;;;;10.07;7.47;;;;;;;;;;6229717;23;20651;-87
2023/04/15 03:41:01;;;;;;;10.00;8.37;;;;;;;;;;6239152;23;20152;-87
2023/04/15 03:44:06;;;;;;;12.07;7.17;;;;;;;;;;6229419;23;20498;-87
2023/04/15 03:47:11;;;;;;;9.03;6.77;;;;;;;;;;6213186;23;20179;-88
2023/04/15 03:50:16;;;;;;;12.57;8.10;;;;;;;;;;6221759;23;20605;-87
2023/04/15 03:53:22;;;;;;;10.10;7.60;;;;;;;;;;6219788;22;20187;-87
2023/04/15 03:56:27;;;;;;;8.90;7.40;;;;;;;;;;6222590;23;20152;-86
2023/04/15 03:59:33;;;;;;;10.20;7.67;;;;;;;;;;6222514;23;20156;-87
2023/04/15 04:02:38;;;;;;;9.70;7.37;;;;;;;;;;6204773;23;20156;-87
2023/04/15 04:05:44;;;;;;;10.23;7.47;;;;;;;;;;6225471;23;20156;-86
2023/04/15 04:08:49;;;;;;;8.43;7.37;;;;;;;;;;6242385;23;20148;-86
2023/04/15 04:11:55;;;;;;;9.33;7.00;;;;;;;;;;6224709;23;20156;-86
2023/04/15 04:15:00;;;;;;;13.80;7.53;;;;;;;;;;6216098;23;20187;-86
2023/04/15 04:18:06;;;;;;;9.53;7.43;;;;;;;;;;6242321;23;20632;-86
2023/04/15 04:21:11;;;;;;;12.63;7.90;;;;;;;;;;6244436;23;20155;-86
2023/04/15 04:24:17;;;;;;;9.27;8.10;;;;;;;;;;6220879;23;20187;-86
2023/04/15 04:27:23;;;;;;;11.17;7.60;;;;;;;;;;6227047;23;20152;-85
2023/04/15 04:30:28;;;;;;;10.23;7.77;;;;;;;;;;6244259;23;20152;-85
2023/04/15 04:33:34;;;;;;;10.13;7.70;;;;;;;;;;6224345;22;20188;-86
2023/04/15 04:36:39;;;;;;;10.60;7.73;;;;;;;;;;6228253;23;20147;-86
2023/04/15 04:39:45;;;;;;;9.93;7.67;;;;;;;;;;6214945;23;20199;-85
2023/04/15 04:42:51;;;;;;;10.50;7.00;;;;;;;;;;6223073;23;20152;-86
2023/04/15 04:45:57;;;;;;;10.87;7.17;;;;;;;;;;6219748;23;20183;-86
2023/04/15 04:49:02;;;;;;;9.83;7.17;;;;;;;;;;6222369;23;20144;-85
2023/04/15 04:52:08;;;;;;;11.70;7.57;;;;;;;;;;6239422;23;20151;-85
2023/04/15 04:55:13;;;;;;;9.10;7.43;;;;;;;;;;6213993;23;20191;-84
2023/04/15 04:58:18;;;;;;;19.17;10.47;;;;;;;;;;6226039;23;20175;-84
2023/04/15 05:01:25;;;;;;;9.87;7.53;;;;;;;;;;6213770;23;20163;-85
2023/04/15 05:04:30;;;;;;;10.37;7.10;;;;;;;;;;6232418;23;20191;-81
2023/04/15 05:07:38;;;;;;;12.10;8.43;;;;;;;;;;6221761;23;20152;-81
2023/04/15 05:10:43;;;;;;;8.50;6.80;;;;;;;;;;6211784;23;20167;-82
2023/04/15 05:13:49;;;;;;;7.67;6.33;;;;;;;;;;6229145;22;20187;-82
2023/04/15 05:16:54;;;;;;;9.63;7.50;;;;;;;;;;6221495;23;20596;-82
2023/04/15 05:20:01;;;;;;;6.40;5.60;;;;;;;;;;6239184;23;20180;-82
2023/04/15 05:23:06;;;;;;;6.73;5.83;;;;;;;;;;6240629;22;20156;-87
2023/04/15 05:26:12;;;;;;;9.50;6.27;;;;;;;;;;6239644;23;20151;-86
2023/04/15 05:29:17;;;;;;;8.10;5.80;;;;;;;;;;6221909;23;20152;-86
2023/04/15 05:32:24;;;;;;;9.57;6.07;;;;;;;;;;6212368;23;20191;-85
2023/04/15 05:35:30;;;;;;;8.53;6.37;;;;;;;;;;6229010;23;20636;-85
2023/04/15 05:38:36;;;;;;;7.50;6.17;;;;;;;;;;6229031;23;20195;-86
2023/04/15 05:41:41;;;;;;;8.90;6.27;;;;;;;;;;6228854;23;20199;-83
2023/04/15 05:44:49;;;;;;;32.67;21.20;;;;;;;;;;6231694;23;20187;-84
2023/04/15 05:47:54;;;;;;;10.10;7.93;;;;;;;;;;6221955;23;20147;-84
2023/04/15 05:51:00;;;;;;;10.30;7.90;;;;;;;;;;6221865;23;20458;-87
2023/04/15 05:54:05;;;;;;;11.87;8.93;;;;;;;;;;6217292;23;20191;-86
2023/04/15 05:57:10;;;;;;;12.07;9.43;;;;;;;;;;6221558;23;20152;-86
2023/04/15 06:00:16;;;;;;;10.53;7.53;;;;;;;;;;6221775;23;20179;-86
2023/04/15 06:03:22;;;;;;;9.67;7.70;;;;;;;;;;6219680;22;20187;-86
2023/04/15 06:06:27;;;;;;;8.57;7.20;;;;;;;;;;6221344;23;20485;-86
2023/04/15 06:09:33;;;;;;;10.80;7.23;;;;;;;;;;6211484;23;20163;-86
2023/04/15 06:12:39;;;;;;;8.07;7.00;;;;;;;;;;6228670;23;20175;-87
2023/04/15 06:15:46;;;;;;;7.77;6.13;;;;;;;;;;6221140;23;20148;-87
2023/04/15 06:18:52;;;;;;;12.03;8.93;;;;;;;;;;6211087;23;20171;-87
2023/04/15 06:21:57;;;;;;;10.17;7.47;;;;;;;;;;6211048;23;20625;-87
2023/04/15 06:25:07;;;;;;;8.77;7.53;;;;;;;;;;6212848;23;20183;-87
2023/04/15 06:28:12;;;;;;;10.33;6.90;;;;;;;;;;6221225;23;20458;-87
2023/04/15 06:31:17;;;;;;;10.97;7.60;;;;;;;;;;6221748;23;20147;-86
2023/04/15 06:34:22;;;;;;;12.83;8.53;;;;;;;;;;6215222;23;20187;-85
2023/04/15 06:37:28;;;;;;;10.70;8.17;;;;;;;;;;6221861;23;20155;-86
2023/04/15 06:40:33;;;;;;;10.57;7.33;;;;;;;;;;6238529;23;20183;-85
2023/04/15 06:43:39;;;;;;;8.93;7.10;;;;;;;;;;6217813;22;20191;-86
2023/04/15 06:46:44;;;;;;;10.07;8.23;;;;;;;;;;6214879;23;20175;-87
2023/04/15 06:49:50;;;;;;;8.37;6.77;;;;;;;;;;6239055;23;20151;-85
2023/04/15 06:52:56;;;;;;;9.53;8.30;;;;;;;;;;6221021;23;20148;-86
2023/04/15 06:56:01;;;;;;;8.90;7.60;;;;;;;;;;6239158;23;20161;-84
2023/04/15 06:59:07;;;;;;;8.70;7.07;;;;;;;;;;6220716;23;20492;-86
2023/04/15 07:02:13;;;;;;;7.47;6.23;;;;;;;;;;6221033;23;20151;-86
2023/04/15 07:05:19;;;;;;;9.57;7.53;;;;;;;;;;6228178;23;20192;-85
2023/04/15 07:08:24;;;;;;;10.17;9.17;;;;;;;;;;6210997;23;20171;-85
2023/04/15 07:11:30;;;;;;;8.83;6.10;;;;;;;;;;6221056;23;20147;-86
2023/04/15 07:14:35;;;;;;;9.47;7.40;;;;;;;;;;6214094;23;20191;-85
2023/04/15 07:17:42;;;;;;;7.77;6.70;;;;;;;;;;6221027;23;20462;-85
2023/04/15 07:20:47;;;;;;;7.93;6.50;;;;;;;;;;6220796;23;20176;-85
2023/04/15 07:23:53;;;;;;;7.47;6.67;;;;;;;;;;6216860;22;20519;-85
2023/04/15 07:26:58;;;;;;;7.77;6.73;;;;;;;;;;6221076;23;20605;-85
2023/04/15 07:30:04;;;;;;;8.20;6.30;;;;;;;;;;6221049;23;20143;-85
2023/04/15 07:33:08;;;;;;;7.83;6.67;;;;;;;;;;6238129;22;20156;-86
2023/04/15 07:36:14;;;;;;;7.73;6.53;;;;;;;;;;6221662;23;20462;-86
2023/04/15 07:39:19;;;;;;;7.97;6.27;;;;;;;;;;6232712;23;20171;-85
2023/04/15 07:42:24;;;;;;;9.13;6.30;;;;;;;;;;6220531;23;20152;-85
2023/04/15 07:45:30;;;;;;;9.93;6.57;;;;;;;;;;6236704;23;20494;-85
2023/04/15 07:48:37;;;;;;;9.27;6.80;;;;;;;;;;6237880;23;20156;-85
2023/04/15 07:51:43;;;;;;;8.90;7.33;;;;;;;;;;6210698;23;20171;-85
2023/04/15 07:54:48;;;;;;;9.23;6.60;;;;;;;;;;6212183;23;20187;-85
2023/04/15 07:57:54;;;;;;;9.00;6.37;;;;;;;;;;6223015;23;20485;-85
2023/04/15 08:00:59;;;;;;;6.77;6.07;;;;;;;;;;6258145;23;20179;-85
2023/04/15 08:04:08;;;;;;;10.00;6.20;;;;;;;;;;6235295;23;20532;-85
2023/04/15 08:07:17;;;;;;;7.07;5.67;;;;;;;;;;6239762;23;20152;-85
2023/04/15 08:10:22;;;;;;;7.70;6.43;;;;;;;;;;6222408;23;20155;-85
2023/04/15 08:13:27;;;;;;;7.27;6.57;;;;;;;;;;6220713;22;20506;-85
2023/04/15 08:16:33;;;;;;;8.57;5.97;;;;;;;;;;6222272;23;20151;-85
2023/04/15 08:19:39;;;;;;;8.83;6.43;;;;;;;;;;6222211;23;20155;-85
2023/04/15 08:22:50;;;;;;;10.70;6.40;;;;;;;;;;6239839;23;20156;-85
2023/04/15 08:25:56;;;;;;;7.20;6.20;;;;;;;;;;6239563;23;20152;-85
2023/04/15 08:29:01;;;;;;;8.57;6.70;;;;;;;;;;6240124;23;20152;-85
2023/04/15 08:32:08;;;;;;;8.30;6.90;;;;;;;;;;6223052;23;20148;-85
2023/04/15 08:35:14;;;;;;;6.30;5.47;;;;;;;;;;6231978;23;20191;-85
2023/04/15 08:38:19;;;;;;;8.23;5.63;;;;;;;;;;6241470;23;20152;-85
2023/04/15 08:41:26;;;;;;;6.00;5.10;;;;;;;;;;6242025;23;20179;-85
2023/04/15 08:44:37;;;;;;;6.70;5.20;;;;;;;;;;6235035;23;20188;-85
2023/04/15 08:47:45;;;;;;;8.83;5.50;;;;;;;;;;6232140;23;20176;-85
2023/04/15 08:50:51;;;;;;;6.47;5.17;;;;;;;;;;6225204;23;20148;-85
2023/04/15 08:53:57;;;;;;;7.57;5.20;;;;;;;;;;6220058;22;20187;-85
2023/04/15 08:57:02;;;;;;;6.77;5.53;;;;;;;;;;6240066;23;20155;-85
2023/04/15 09:00:09;;;;;;;7.33;5.63;;;;;;;;;;6223073;23;20152;-84
2023/04/15 09:03:16;;;;;;;5.90;5.30;;;;;;;;;;6238595;22;20159;-85
2023/04/15 09:06:22;;;;;;;9.17;5.87;;;;;;;;;;6212109;23;20632;-84
2023/04/15 09:09:27;;;;;;;7.23;4.97;;;;;;;;;;6239100;23;20147;-85
2023/04/15 09:12:35;;;;;;;10.30;5.27;;;;;;;;;;6229956;23;20474;-85
2023/04/15 09:15:40;;;;;;;7.20;4.83;;;;;;;;;;6212424;23;20632;-85
2023/04/15 09:18:46;;;;;;;5.80;5.20;;;;;;;;;;6212642;23;20167;-85
2023/04/15 09:21:55;;;;;;;7.07;4.90;;;;;;;;;;6222383;23;20187;-85
2023/04/15 09:25:01;;;;;;;6.80;5.07;;;;;;;;;;6212842;23;20188;-85
2023/04/15 09:28:06;;;;;;;6.03;4.53;;;;;;;;;;6212615;23;20167;-84
2023/04/15 09:31:11;;;;;;;8.80;5.80;;;;;;;;;;6222175;23;20148;-84
2023/04/15 09:34:17;;;;;;;5.80;5.20;;;;;;;;;;6234219;23;20188;-84
2023/04/15 09:37:35;;;;;;;5.37;4.33;;;;;;;;;;6222603;23;20152;-85
2023/04/15 09:40:41;;;;;;;7.27;5.40;;;;;;;;;;6223052;23;20466;-85
2023/04/15 09:43:46;;;;;;;6.90;5.43;;;;;;;;;;6248671;22;20191;-84
2023/04/15 09:46:52;;;;;;;7.50;5.33;;;;;;;;;;6233028;23;20179;-85
2023/04/15 09:49:59;;;;;;;7.80;5.43;;;;;;;;;;6225040;23;20155;-85
2023/04/15 09:53:04;;;;;;;7.23;5.13;;;;;;;;;;6222092;22;20152;-83
2023/04/15 09:56:09;;;;;;;7.97;5.40;;;;;;;;;;6240528;23;20516;-84
2023/04/15 09:59:15;;;;;;;6.70;5.20;;;;;;;;;;6240349;23;20505;-84
2023/04/15 10:02:21;;;;;;;6.87;5.63;;;;;;;;;;6222140;23;20183;-84
2023/04/15 10:05:26;;;;;;;6.37;5.43;;;;;;;;;;6229115;23;20167;-84
2023/04/15 10:08:33;;;;;;;9.10;5.13;;;;;;;;;;6288973;22;20205;-83
2023/04/15 10:11:39;;;;;;;6.30;5.33;;;;;;;;;;6303822;22;20151;-83
2023/04/15 10:14:52;;;;;;;6.33;5.30;;;;;;;;;;6321264;22;20155;-83
2023/04/15 10:17:59;;;;;;;6.40;5.50;;;;;;;;;;6313864;22;20185;-83
2023/04/15 10:21:07;;;;;;;7.07;4.97;;;;;;;;;;6293157;22;20170;-83
2023/04/15 10:24:15;;;;;;;7.57;5.67;;;;;;;;;;6304554;22;20166;-83
2023/04/15 10:27:21;;;;;;;8.40;4.97;;;;;;;;;;6317821;22;20185;-82
2023/04/15 10:30:27;;;;;;;5.27;4.23;;;;;;;;;;6302879;22;20154;-83
2023/04/15 10:33:37;;;;;;;8.13;5.17;;;;;;;;;;6311902;22;20163;-83
2023/04/15 10:36:45;;;;;;;5.37;4.57;;;;;;;;;;6305536;22;20150;-81
2023/04/15 10:39:51;;;;;;;11.13;7.33;;;;;;;;;;6295891;22;20635;-81
2023/04/15 10:42:59;;;;;;;7.10;5.03;;;;;;;;;;6310144;22;20190;-85
2023/04/15 10:46:05;;;;;;;6.10;4.80;;;;;;;;;;6320668;22;20170;-83
2023/04/15 10:49:23;;;;;;;6.50;4.90;;;;;;;;;;6302067;22;20480;-82
2023/04/15 10:52:28;;;;;;;5.97;4.40;;;;;;;;;;6329305;22;20147;-82
2023/04/15 10:55:34;;;;;;;6.90;4.63;;;;;;;;;;6327887;22;20472;-82
2023/04/15 10:58:43;;;;;;;5.47;3.97;;;;;;;;;;6317484;22;20669;-83
2023/04/15 11:01:51;;;;;;;6.47;5.20;;;;;;;;;;6329512;22;20151;-81
2023/04/15 11:04:57;;;;;;;5.93;4.20;;;;;;;;;;6329218;22;20154;-82
2023/04/15 11:08:03;;;;;;;7.87;4.20;;;;;;;;;;6300888;22;20189;-83
2023/04/15 11:11:09;;;;;;;10.67;4.30;;;;;;;;;;6314805;22;20170;-83
2023/04/15 11:14:15;;;;;;;6.00;4.03;;;;;;;;;;6299203;22;20158;-82
2023/04/15 11:17:28;;;;;;;4.50;4.10;;;;;;;;;;6322628;22;20189;-83
2023/04/15 11:20:33;;;;;;;9.03;3.40;;;;;;;;;;6324452;22;20146;-86
2023/04/15 11:23:45;;;;;;;5.80;3.60;;;;;;;;;;6304266;22;20178;-84
2023/04/15 11:32:10;;;;;;;4.63;3.93;;;;;;;;;;6325161;22;20154;-85
2023/04/15 11:35:19;;;;;;;7.53;4.80;;;;;;;;;;6304797;22;20147;-85
2023/04/15 11:38:25;;;;;;;7.97;6.20;;;;;;;;;;6292308;22;20182;-85
2023/04/15 11:41:31;;;;;;;19.33;11.33;;;;;;;;;;6303448;22;20448;-86
2023/04/15 11:44:36;;;;;;;54.67;25.73;;;;;;;;;;6303322;22;20185;-85
2023/04/15 11:47:42;;;;;;;44.40;23.97;;;;;;;;;;6299086;22;20192;-86
2023/04/15 11:51:05;;;;;;;13.20;9.57;;;;;;;;;;6293487;22;20176;-86
2023/04/15 11:54:18;;;;;;;9.07;7.70;;;;;;;;;;6322066;22;20608;-85
2023/04/15 11:57:30;;;;;;;12.70;6.07;;;;;;;;;;6282908;22;20186;-86
2023/04/15 12:00:35;;;;;;;11.33;8.33;;;;;;;;;;6286521;22;20173;-85
2023/04/15 12:03:47;;;;;;;11.17;9.93;;;;;;;;;;6285860;22;20182;-86
2023/04/15 12:06:51;;;;;;;8.80;6.60;;;;;;;;;;6301886;22;20155;-85
2023/04/15 12:09:56;;;;;;;11.70;10.47;;;;;;;;;;6302333;22;20158;-84
2023/04/15 12:13:05;;;;;;;5.47;4.97;;;;;;;;;;6302790;22;20474;-85
2023/04/15 12:16:10;;;;;;;5.57;4.90;;;;;;;;;;6301840;22;20150;-85
2023/04/15 12:19:17;;;;;;;3.43;2.97;;;;;;;;;;6285864;22;20154;-86
2023/04/15 12:22:21;;;;;;;2.60;2.40;;;;;;;;;;6273919;22;20626;-86
2023/04/15 12:25:34;;;;;;;3.40;3.00;;;;;;;;;;6291746;22;20174;-85
2023/04/15 12:28:41;;;;;;;4.37;3.10;;;;;;;;;;6275323;22;20659;-85
2023/04/15 12:31:53;;;;;;;10.90;5.23;;;;;;;;;;6293664;22;20448;-86
2023/04/15 12:34:57;;;;;;;4.67;2.97;;;;;;;;;;6294078;22;20456;-85
2023/04/15 12:38:01;;;;;;;3.00;2.20;;;;;;;;;;6303344;22;20182;-86
2023/04/15 12:41:06;;;;;;;3.67;2.20;;;;;;;;;;6282586;22;20170;-86
2023/04/15 12:44:10;;;;;;;3.00;2.60;;;;;;;;;;6327250;22;20182;-86
2023/04/15 12:47:15;;;;;;;4.43;2.70;;;;;;;;;;6296995;22;20186;-86
2023/04/15 12:50:19;;;;;;;3.07;2.50;;;;;;;;;;6289574;22;20469;-86
2023/04/15 12:53:23;;;;;;;2.50;2.30;;;;;;;;;;6289373;22;20147;-84
2023/04/15 12:56:28;;;;;;;3.60;2.43;;;;;;;;;;6305910;22;20154;-85
2023/04/15 12:59:32;;;;;;;4.47;2.50;;;;;;;;;;6285093;22;20180;-84
2023/04/15 13:02:36;;;;;;;4.87;3.00;;;;;;;;;;6302101;22;20154;-84
2023/04/15 13:05:41;;;;;;;3.47;2.50;;;;;;;;;;6302360;22;20154;-84
2023/04/15 13:08:45;;;;;;;5.37;2.60;;;;;;;;;;6275567;22;20202;-85
2023/04/15 13:11:49;;;;;;;6.73;2.63;;;;;;;;;;6319713;22;20154;-84
2023/04/15 13:14:54;;;;;;;4.23;3.00;;;;;;;;;;6284167;22;20599;-85
2023/04/15 13:17:58;;;;;;;3.43;2.60;;;;;;;;;;6278459;22;20189;-85
2023/04/15 13:21:02;;;;;;;3.20;2.53;;;;;;;;;;6284685;22;20145;-85
2023/04/15 13:24:07;;;;;;;4.00;2.60;;;;;;;;;;6301901;22;20186;-85
2023/04/15 13:27:11;;;;;;;4.03;2.53;;;;;;;;;;6281407;22;20186;-84
2023/04/15 13:30:15;;;;;;;3.30;2.80;;;;;;;;;;6301629;22;20154;-84
2023/04/15 13:33:19;;;;;;;3.03;2.73;;;;;;;;;;6319802;22;20147;-85
2023/04/15 13:36:25;;;;;;;3.30;2.60;;;;;;;;;;6309444;22;20166;-84
2023/04/15 13:39:29;;;;;;;5.13;3.20;;;;;;;;;;6310031;22;20170;-87
2023/04/15 13:42:33;;;;;;;3.60;2.77;;;;;;;;;;6318320;22;20150;-87
2023/04/15 13:45:37;;;;;;;3.33;3.00;;;;;;;;;;6301234;22;20154;-84
2023/04/15 13:48:41;;;;;;;7.10;4.07;;;;;;;;;;6292795;22;20186;-84
2023/04/15 13:51:46;;;;;;;4.93;4.20;;;;;;;;;;6302225;22;20154;-84
2023/04/15 13:54:50;;;;;;;3.93;2.70;;;;;;;;;;6284540;22;20150;-83
2023/04/15 13:57:56;;;;;;;5.73;3.90;;;;;;;;;;6278164;22;20190;-84
2023/04/15 14:01:07;;;;;;;5.78;4.68;;;;;;;;;;6289165;22;20678;-84
2023/04/15 14:04:18;;;;;;;3.93;3.27;;;;;;;;;;6289970;22;20504;-83
2023/04/15 14:07:22;;;;;;;4.67;2.57;;;;;;;;;;6279281;22;20194;-83
2023/04/15 14:10:26;;;;;;;3.23;2.60;;;;;;;;;;6283446;22;20150;-84
2023/04/15 14:13:30;;;;;;;6.73;3.70;;;;;;;;;;6283102;22;20146;-84
2023/04/15 14:16:35;;;;;;;2.70;2.30;;;;;;;;;;6287421;22;20154;-84
2023/04/15 14:19:39;;;;;;;4.23;2.30;;;;;;;;;;6279196;22;20147;-84
2023/04/15 14:22:43;;;;;;;4.87;2.73;;;;;;;;;;6266926;22;20167;-84
2023/04/15 14:25:48;;;;;;;2.87;2.10;;;;;;;;;;6247692;22;20174;-84
2023/04/15 14:28:52;;;;;;;4.90;4.00;;;;;;;;;;6282041;22;20182;-83
2023/04/15 14:31:57;;;;;;;3.60;2.43;;;;;;;;;;6275889;22;20151;-83
2023/04/15 14:35:03;;;;;;;7.97;4.03;;;;;;;;;;6275357;22;20147;-84
2023/04/15 14:38:09;;;;;;;49.83;30.63;;;;;;;;;;6265590;22;20186;-83
2023/04/15 14:41:13;;;;;;;7.60;4.40;;;;;;;;;;6307487;22;20155;-82
2023/04/15 14:44:18;;;;;;;3.30;2.50;;;;;;;;;;6287961;22;20187;-83
2023/04/15 14:47:23;;;;;;;3.10;2.53;;;;;;;;;;6243182;22;20186;-83
2023/04/15 14:50:27;;;;;;;3.60;2.53;;;;;;;;;;6261952;22;20496;-82
2023/04/15 14:53:34;;;;;;;17.03;8.17;;;;;;;;;;6269711;22;20155;-84
2023/04/15 15:07:47;;;;;;;4.47;3.10;;;;;;;;;;6208570;23;20693;-84
2023/04/15 15:10:53;;;;;;;4.10;2.80;;;;;;;;;;6205431;22;20175;-82
2023/04/15 15:13:57;;;;;;;3.33;2.77;;;;;;;;;;6251730;22;20150;-83
2023/04/15 15:17:01;;;;;;;3.47;2.90;;;;;;;;;;6270430;22;20192;-80
2023/04/15 15:20:06;;;;;;;8.43;4.17;;;;;;;;;;6251905;22;20151;-81
2023/04/15 15:23:10;;;;;;;6.23;4.77;;;;;;;;;;6270022;22;20489;-81
2023/04/15 15:26:15;;;;;;;8.97;6.53;;;;;;;;;;6269801;22;20150;-81
2023/04/15 15:29:19;;;;;;;13.03;8.90;;;;;;;;;;6287377;22;20604;-82
2023/04/15 15:32:23;;;;;;;4.90;3.67;;;;;;;;;;6287204;22;20591;-81
2023/04/15 15:35:27;;;;;;;3.50;3.13;;;;;;;;;;6252821;22;20152;-82
2023/04/15 15:38:31;;;;;;;6.07;3.30;;;;;;;;;;6259723;22;20194;-82
2023/04/15 15:41:36;;;;;;;3.93;3.30;;;;;;;;;;6253073;22;20155;-82
2023/04/15 15:44:40;;;;;;;4.27;3.63;;;;;;;;;;6269886;22;20183;-82
2023/04/15 15:47:43;;;;;;;4.97;3.40;;;;;;;;;;6280231;22;20190;-82
2023/04/15 15:50:48;;;;;;;4.27;3.30;;;;;;;;;;6270719;22;20154;-81
2023/04/15 15:53:52;;;;;;;4.43;3.27;;;;;;;;;;6252745;22;20154;-81
2023/04/15 15:56:56;;;;;;;6.77;5.10;;;;;;;;;;6259048;22;20170;-82
2023/04/15 16:00:00;;;;;;;4.57;3.63;;;;;;;;;;6259897;22;20622;-82
2023/04/15 16:03:04;;;;;;;4.50;3.50;;;;;;;;;;6262884;22;20166;-82
2023/04/15 16:06:08;;;;;;;5.27;4.37;;;;;;;;;;6271555;22;20151;-82
2023/04/15 16:09:48;;;;;;;4.50;3.23;;;;;;;;;;6220417;22;20212;-88
2023/04/15 16:13:38;;;;;;;6.40;3.73;;;;;;;;;;6254561;22;20155;-88
2023/04/15 16:17:34;;;;;;;4.83;3.20;;;;;;;;;;6267617;22;20170;-88
2023/04/15 16:33:41;;;;;;;;;;;;;;;;;;;;;
2023/04/15 16:38:00;;;;;;;6.03;3.63;;;;;;;;;;6255574;22;20188;-88
2023/04/15 16:42:09;;;;;;;4.37;3.50;;;;;;;;;;6234533;23;20536;-88
2023/04/15 16:45:58;;;;;;;4.63;4.03;;;;;;;;;;6248003;22;20179;-88
2023/04/15 16:49:26;;;;;;;5.43;3.70;;;;;;;;;;6233159;23;20188;-88
2023/04/15 16:53:34;;;;;;;5.80;3.83;;;;;;;;;;6257618;23;20155;-88
2023/04/15 16:57:21;;;;;;;4.90;3.80;;;;;;;;;;6236114;22;20191;-88
2023/04/15 17:05:33;;;;;;;;;;;;;;;;;;;;;
2023/04/15 17:08:56;;;;;;;5.73;4.50;;;;;;;;;;6232317;23;20191;-88
2023/04/15 17:12:40;;;;;;;;;;;;;;;;;;;;;
2023/04/15 17:16:16;;;;;;;5.20;4.70;;;;;;;;;;6257514;23;20152;-88
2023/04/15 17:20:19;;;;;;;;;;;;;;;;;;;;;
2023/04/15 17:23:46;;;;;;;4.40;4.00;;;;;;;;;;6240720;23;20148;-89
2023/04/15 17:27:25;;;;;;;6.60;5.20;;;;;;;;;;6243284;23;20156;-88
2023/04/15 17:30:49;;;;;;;6.07;4.30;;;;;;;;;;6230968;23;20152;-83
2023/04/15 17:34:14;;;;;;;5.90;4.93;;;;;;;;;;6245871;23;20194;-84
2023/04/15 17:37:38;;;;;;;5.10;4.60;;;;;;;;;;6244964;22;20652;-83
2023/04/15 17:41:03;;;;;;;7.77;4.90;;;;;;;;;;6235696;23;20487;-84
2023/04/15 17:44:27;;;;;;;6.23;5.27;;;;;;;;;;6234955;23;20179;-84
2023/04/15 17:47:51;;;;;;;7.40;5.83;;;;;;;;;;6243016;22;20187;-83
2023/04/15 17:51:16;;;;;;;11.30;5.80;;;;;;;;;;6246674;23;20156;-83
2023/04/15 17:54:40;;;;;;;7.57;5.00;;;;;;;;;;6234168;23;20580;-83
2023/04/15 17:58:05;;;;;;;7.57;5.00;;;;;;;;;;6229610;22;20192;-84
2023/04/15 18:01:29;;;;;;;8.00;4.90;;;;;;;;;;6245525;23;20151;-83
2023/04/15 18:04:53;;;;;;;7.27;5.53;;;;;;;;;;6258593;23;20180;-83
2023/04/15 18:08:17;;;;;;;7.83;5.30;;;;;;;;;;6227289;22;20188;-83
2023/04/15 18:11:43;;;;;;;8.07;5.50;;;;;;;;;;6240443;23;20193;-83
2023/04/15 18:15:08;;;;;;;7.97;5.33;;;;;;;;;;6232456;23;20151;-83
2023/04/15 18:18:32;;;;;;;9.60;5.50;;;;;;;;;;6227219;23;20187;-83
2023/04/15 18:21:37;;;;;;;7.47;5.70;;;;;;;;;;6242384;23;20154;-84
2023/04/15 18:24:41;;;;;;;6.47;5.10;;;;;;;;;;6242761;23;20636;-83
2023/04/15 18:27:45;;;;;;;7.80;5.60;;;;;;;;;;6230678;22;20191;-83
2023/04/15 18:30:50;;;;;;;7.53;5.97;;;;;;;;;;6214113;23;20167;-83
2023/04/15 18:33:54;;;;;;;7.17;5.17;;;;;;;;;;6224095;23;20152;-83
2023/04/15 18:36:58;;;;;;;7.57;5.50;;;;;;;;;;6262742;23;20152;-83
2023/04/15 18:40:03;;;;;;;6.17;4.90;;;;;;;;;;6224108;23;20148;-83
2023/04/15 18:43:08;;;;;;;7.63;5.80;;;;;;;;;;6258628;23;20156;-83
2023/04/15 18:46:13;;;;;;;5.97;5.00;;;;;;;;;;6226545;23;20184;-84
2023/04/15 18:49:17;;;;;;;6.33;5.40;;;;;;;;;;6234869;23;20187;-83
2023/04/15 18:52:21;;;;;;;7.43;5.77;;;;;;;;;;6243814;23;20155;-83
2023/04/15 18:55:25;;;;;;;6.70;5.40;;;;;;;;;;6226159;23;20148;-84
2023/04/15 18:58:30;;;;;;;6.23;4.70;;;;;;;;;;6219570;23;20497;-83
2023/04/15 19:01:34;;;;;;;5.30;4.53;;;;;;;;;;6224465;23;20159;-83
2023/04/15 19:04:38;;;;;;;5.67;4.47;;;;;;;;;;6242295;23;20155;-84
2023/04/15 19:07:42;;;;;;;5.07;4.10;;;;;;;;;;6221887;22;20523;-83
2023/04/15 19:10:46;;;;;;;4.23;3.80;;;;;;;;;;6234395;23;20620;-83
2023/04/15 19:13:51;;;;;;;4.43;3.57;;;;;;;;;;6240997;23;20596;-83
2023/04/15 19:16:56;;;;;;;5.10;4.10;;;;;;;;;;6232487;23;20167;-86
2023/04/15 19:19:59;;;;;;;10.60;5.97;;;;;;;;;;6212432;23;20163;-86
2023/04/15 19:23:04;;;;;;;4.53;4.03;;;;;;;;;;6222205;23;20151;-83